createdAt,value
2023-03-04T00:00:26.247Z,3.30
2023-03-04T00:03:14.313Z,3.36
2023-03-04T00:06:00.300Z,3.35
2023-03-04T00:08:46.083Z,3.35
2023-03-04T00:11:31.832Z,3.38
2023-03-04T00:14:18.857Z,3.39
2023-03-04T00:17:04.581Z,3.40
2023-03-04T00:19:50.652Z,3.42
2023-03-04T00:22:36.286Z,3.44
2023-03-04T00:25:22.089Z,3.46
2023-03-04T00:28:07.868Z,3.47
2023-03-04T00:30:54.944Z,3.47
2023-03-04T00:33:43.353Z,3.50
2023-03-04T00:36:29.167Z,3.50
2023-03-04T00:39:14.964Z,3.55
2023-03-04T00:42:00.871Z,3.56
2023-03-04T00:44:46.852Z,3.56
2023-03-04T00:47:34.182Z,3.56
2023-03-04T00:50:20.060Z,3.58
2023-03-04T00:53:06.433Z,3.62
2023-03-04T00:55:52.837Z,3.64
2023-03-04T00:58:39.362Z,3.63
2023-03-04T01:01:25.377Z,3.62
2023-03-04T01:04:12.441Z,3.64
2023-03-04T01:07:00.154Z,3.66
2023-03-04T01:09:47.800Z,3.70
2023-03-04T01:12:33.555Z,3.71
2023-03-04T01:15:19.589Z,3.72
2023-03-04T01:18:05.227Z,3.74
2023-03-04T01:20:52.387Z,3.71
2023-03-04T01:23:38.275Z,3.73
2023-03-04T01:26:23.985Z,3.72
2023-03-04T01:29:09.832Z,3.74
2023-03-04T01:31:55.680Z,3.75
2023-03-04T01:34:41.556Z,3.78
2023-03-04T01:37:28.972Z,3.78
2023-03-04T01:40:15.238Z,3.79
2023-03-04T01:43:00.814Z,3.80
2023-03-04T01:45:46.889Z,3.80
2023-03-04T01:48:36.435Z,3.82
2023-03-04T01:51:22.346Z,3.82
2023-03-04T01:54:09.584Z,3.84
2023-03-04T01:56:55.506Z,3.84
2023-03-04T01:59:41.746Z,3.86
2023-03-04T02:02:27.530Z,3.89
2023-03-04T02:05:13.573Z,3.90
2023-03-04T02:07:59.642Z,3.91
2023-03-04T02:10:46.859Z,3.92
2023-03-04T02:13:34.105Z,3.93
2023-03-04T02:16:19.902Z,3.94
2023-03-04T02:19:06.163Z,3.95
2023-03-04T02:21:51.827Z,3.94
2023-03-04T02:24:39.608Z,3.97
2023-03-04T02:27:26.725Z,3.98
2023-03-04T02:30:13.369Z,3.99
2023-03-04T02:32:59.213Z,4.01
2023-03-04T02:35:45.487Z,4.02
2023-03-04T02:38:31.570Z,4.02
2023-03-04T02:41:17.740Z,4.04
2023-03-04T02:44:10.994Z,4.04
2023-03-04T02:46:57.452Z,4.04
2023-03-04T02:49:44.520Z,4.00
2023-03-04T02:52:30.200Z,4.06
2023-03-04T02:55:17.020Z,4.08
2023-03-04T02:58:02.844Z,4.06
2023-03-04T03:00:50.437Z,4.06
2023-03-04T03:03:36.825Z,4.06
2023-03-04T03:06:23.072Z,4.08
2023-03-04T03:09:09.379Z,4.07
2023-03-04T03:11:55.688Z,4.09
2023-03-04T03:14:41.883Z,4.11
2023-03-04T03:17:31.898Z,4.10
2023-03-04T03:20:18.141Z,4.11
2023-03-04T03:23:04.386Z,4.12
2023-03-04T03:25:50.423Z,4.12
2023-03-04T03:28:36.373Z,4.11
2023-03-04T03:31:22.636Z,4.12
2023-03-04T03:34:10.097Z,4.11
2023-03-04T03:36:55.946Z,4.12
2023-03-04T03:39:41.696Z,4.15
2023-03-04T03:42:27.504Z,4.11
2023-03-04T03:45:13.693Z,4.13
2023-03-04T03:47:59.348Z,4.14
2023-03-04T03:50:46.506Z,4.13
2023-03-04T03:53:32.036Z,4.12
2023-03-04T03:56:17.821Z,4.11
2023-03-04T03:59:03.649Z,4.10
2023-03-04T04:01:49.427Z,4.12
2023-03-04T04:04:35.139Z,4.13
2023-03-04T04:07:22.317Z,4.12
2023-03-04T04:10:08.659Z,4.09
2023-03-04T04:12:54.335Z,4.08
2023-03-04T04:15:40.476Z,4.08
2023-03-04T04:18:26.686Z,4.04
2023-03-04T04:21:12.765Z,4.06
2023-03-04T04:23:59.812Z,4.01
2023-03-04T04:26:45.655Z,3.96
2023-03-04T04:29:31.625Z,3.98
2023-03-04T04:32:17.627Z,4.00
2023-03-04T04:35:03.539Z,3.97
2023-03-04T04:37:49.245Z,3.99
2023-03-04T04:40:37.255Z,3.96
2023-03-04T04:43:23.044Z,3.92
2023-03-04T04:46:09.395Z,3.89
2023-03-04T04:48:55.374Z,3.91
2023-03-04T04:51:41.169Z,3.88
2023-03-04T04:54:27.021Z,3.90
2023-03-04T04:57:14.165Z,3.89
2023-03-04T05:00:00.096Z,3.87
2023-03-04T05:02:45.766Z,3.85
2023-03-04T05:05:31.655Z,3.85
2023-03-04T05:08:17.468Z,3.78
2023-03-04T05:11:03.275Z,3.82
2023-03-04T05:13:50.630Z,3.79
2023-03-04T05:16:36.340Z,3.83
2023-03-04T05:19:22.103Z,3.78
2023-03-04T05:22:08.068Z,3.80
2023-03-04T05:24:53.776Z,3.79
2023-03-04T05:27:39.533Z,3.77
2023-03-04T05:30:26.708Z,3.76
2023-03-04T05:33:12.558Z,3.73
2023-03-04T05:35:58.297Z,3.71
2023-03-04T05:38:43.958Z,3.67
2023-03-04T05:41:29.675Z,3.64
2023-03-04T05:44:15.530Z,3.63
2023-03-04T05:47:02.467Z,3.56
2023-03-04T05:49:48.568Z,3.55
2023-03-04T05:52:34.751Z,3.54
2023-03-04T05:55:20.752Z,3.56
2023-03-04T05:58:06.610Z,3.53
2023-03-04T06:00:52.361Z,3.51
2023-03-04T06:03:39.563Z,3.47
2023-03-04T06:06:25.510Z,3.47
2023-03-04T06:09:11.300Z,3.52
2023-03-04T06:11:57.261Z,3.47
2023-03-04T06:14:43.517Z,3.51
2023-03-04T06:17:29.408Z,3.48
2023-03-04T06:20:16.644Z,3.52
2023-03-04T06:23:02.421Z,3.50
2023-03-04T06:25:48.158Z,3.52
2023-03-04T06:28:34.130Z,3.52
2023-03-04T06:31:19.798Z,3.54
2023-03-04T06:34:06.143Z,3.54
2023-03-04T06:36:53.297Z,3.57
2023-03-04T06:39:39.098Z,3.57
2023-03-04T06:42:24.952Z,3.60
2023-03-04T06:45:11.659Z,3.66
2023-03-04T06:47:57.597Z,3.63
2023-03-04T06:50:43.493Z,3.69
2023-03-04T06:53:30.495Z,3.70
2023-03-04T06:56:16.890Z,3.75
2023-03-04T06:59:02.782Z,3.77
2023-03-04T07:01:48.505Z,3.79
2023-03-04T07:04:34.223Z,3.86
2023-03-04T07:07:20.205Z,3.89
2023-03-04T07:10:07.893Z,3.88
2023-03-04T07:12:53.976Z,3.87
2023-03-04T07:15:39.812Z,3.86
2023-03-04T07:18:25.536Z,3.91
2023-03-04T07:21:11.416Z,3.93
2023-03-04T07:23:57.249Z,3.95
2023-03-04T07:26:44.229Z,4.00
2023-03-04T07:29:30.075Z,4.02
2023-03-04T07:32:15.968Z,4.09
2023-03-04T07:35:02.309Z,4.12
2023-03-04T07:37:48.060Z,4.17
2023-03-04T07:40:33.852Z,4.20
2023-03-04T07:43:20.930Z,4.23
2023-03-04T07:46:06.941Z,4.31
2023-03-04T07:48:53.073Z,4.33
2023-03-04T07:51:39.061Z,4.37
2023-03-04T07:54:24.846Z,4.45
2023-03-04T07:57:10.543Z,4.52
2023-03-04T07:59:57.708Z,4.58
2023-03-04T08:02:43.482Z,4.62
2023-03-04T08:05:29.169Z,4.66
2023-03-04T08:08:17.251Z,4.65
2023-03-04T08:11:04.635Z,4.70
2023-03-04T08:13:50.533Z,4.70
2023-03-04T08:16:37.648Z,4.75
2023-03-04T08:19:25.837Z,4.71
2023-03-04T08:22:11.694Z,4.71
2023-03-04T08:24:57.377Z,4.75
2023-03-04T08:27:43.045Z,4.78
2023-03-04T08:30:28.889Z,4.78
2023-03-04T08:33:16.594Z,4.81
2023-03-04T08:36:02.176Z,4.81
2023-03-04T08:38:47.978Z,4.84
2023-03-04T08:41:33.823Z,4.87
2023-03-04T08:44:19.445Z,4.93
2023-03-04T08:47:05.640Z,4.88
2023-03-04T08:49:53.650Z,4.99
2023-03-04T08:52:39.769Z,5.00
2023-03-04T08:55:25.561Z,5.06
2023-03-04T08:58:11.368Z,5.09
2023-03-04T09:00:57.315Z,5.14
2023-03-04T09:03:43.368Z,5.16
2023-03-04T09:06:30.800Z,5.23
2023-03-04T09:09:16.644Z,5.24
2023-03-04T09:12:02.632Z,5.20
2023-03-04T09:14:53.287Z,5.28
2023-03-04T09:17:47.004Z,5.29
2023-03-04T09:20:32.807Z,5.33
2023-03-04T09:23:20.792Z,5.39
2023-03-04T09:26:17.158Z,5.43
2023-03-04T09:29:03.066Z,5.51
2023-03-04T09:31:48.840Z,5.58
2023-03-04T09:34:35.040Z,5.67
2023-03-04T09:37:20.908Z,5.72
2023-03-04T09:40:09.060Z,5.74
2023-03-04T09:42:56.158Z,5.78
2023-03-04T09:45:42.704Z,5.73
2023-03-04T09:48:29.002Z,5.82
2023-03-04T09:51:19.867Z,5.82
2023-03-04T09:54:07.156Z,5.74
2023-03-04T09:56:56.188Z,5.72
2023-03-04T09:59:42.571Z,5.72
2023-03-04T10:02:29.896Z,5.76
2023-03-04T10:05:16.354Z,5.67
2023-03-04T10:08:04.719Z,5.62
2023-03-04T10:10:50.712Z,5.65
2023-03-04T10:13:39.923Z,5.69
2023-03-04T10:16:27.175Z,5.72
2023-03-04T10:19:28.979Z,5.72
2023-03-04T10:22:16.416Z,5.78
2023-03-04T10:25:03.486Z,5.86
2023-03-04T10:27:50.967Z,6.07
2023-03-04T10:30:40.852Z,6.15
2023-03-04T10:33:27.551Z,6.26
2023-03-04T10:36:25.665Z,6.38
2023-03-04T10:39:12.058Z,6.51
2023-03-04T10:41:59.444Z,6.61
2023-03-04T10:44:52.489Z,6.76
2023-03-04T10:47:39.505Z,6.77
2023-03-04T10:50:26.010Z,6.83
2023-03-04T10:53:17.528Z,6.81
2023-03-04T10:56:03.620Z,6.94
2023-03-04T10:58:49.408Z,7.09
2023-03-04T11:01:35.122Z,7.32
2023-03-04T11:04:23.364Z,7.38
2023-03-04T11:07:09.560Z,7.47
2023-03-04T11:09:58.315Z,7.60
2023-03-04T11:12:45.108Z,7.66
2023-03-04T11:15:31.781Z,7.71
2023-03-04T11:18:17.954Z,7.72
2023-03-04T11:21:05.197Z,7.69
2023-03-04T11:23:51.534Z,7.72
2023-03-04T11:26:37.719Z,7.80
2023-03-04T11:29:25.697Z,7.82
2023-03-04T11:32:12.226Z,8.07
2023-03-04T11:34:59.483Z,8.47
2023-03-04T11:37:47.918Z,8.88
2023-03-04T11:40:35.066Z,9.31
2023-03-04T11:43:22.124Z,9.68
2023-03-04T11:46:13.134Z,9.98
2023-03-04T11:49:02.354Z,10.10
2023-03-04T11:51:49.321Z,9.82
2023-03-04T11:54:36.896Z,9.36
2023-03-04T11:57:24.577Z,9.37
2023-03-04T12:00:14.628Z,9.01
2023-03-04T12:03:05.377Z,9.06
2023-03-04T12:05:52.870Z,9.02
2023-03-04T12:08:41.098Z,8.97
2023-03-04T12:11:29.932Z,8.95
2023-03-04T12:14:26.798Z,8.79
2023-03-04T12:17:32.652Z,8.72
2023-03-04T12:20:36.664Z,8.62
2023-03-04T12:23:26.961Z,8.76
2023-03-04T12:26:18.109Z,8.89
2023-03-04T12:29:06.961Z,9.06
2023-03-04T12:31:53.884Z,9.30
2023-03-04T12:34:44.756Z,9.33
2023-03-04T12:37:48.907Z,9.39
2023-03-04T12:40:39.281Z,9.54
2023-03-04T12:43:39.299Z,9.51
2023-03-04T12:46:32.002Z,9.39
2023-03-04T12:49:31.261Z,9.47
2023-03-04T12:52:17.699Z,9.19
2023-03-04T12:55:04.328Z,8.93
2023-03-04T12:57:50.252Z,8.63
2023-03-04T13:00:39.843Z,8.73
2023-03-04T13:03:29.156Z,8.63
2023-03-04T13:06:24.218Z,8.52
2023-03-04T13:09:12.381Z,8.35
2023-03-04T13:12:03.886Z,8.24
2023-03-04T13:15:08.706Z,8.25
2023-03-04T13:17:55.003Z,8.28
2023-03-04T13:20:42.310Z,8.19
2023-03-04T13:23:28.560Z,8.30
2023-03-04T13:26:18.918Z,8.38
2023-03-04T13:29:29.126Z,8.33
2023-03-04T13:32:15.127Z,8.20
2023-03-04T13:35:01.458Z,8.28
2023-03-04T13:37:57.386Z,8.32
2023-03-04T13:40:43.237Z,8.28
2023-03-04T13:43:29.373Z,8.32
2023-03-04T13:46:39.540Z,8.27
2023-03-04T13:49:26.056Z,8.16
2023-03-04T13:52:35.046Z,8.28
2023-03-04T13:55:43.038Z,8.25
2023-03-04T13:58:30.322Z,8.27
2023-03-04T14:01:26.825Z,8.12
2023-03-04T14:04:14.524Z,8.08
2023-03-04T14:07:00.966Z,8.06
2023-03-04T14:09:54.609Z,7.90
2023-03-04T14:12:41.753Z,7.99
2023-03-04T14:15:29.840Z,8.04
2023-03-04T14:18:15.924Z,7.99
2023-03-04T14:21:01.752Z,7.79
2023-03-04T14:23:47.621Z,7.69
2023-03-04T14:26:33.292Z,7.46
2023-03-04T14:29:23.086Z,7.24
2023-03-04T14:32:12.018Z,7.09
2023-03-04T14:34:58.874Z,7.16
2023-03-04T14:37:45.194Z,7.11
2023-03-04T14:40:32.081Z,7.14
2023-03-04T14:43:19.166Z,7.00
2023-03-04T14:46:06.831Z,7.08
2023-03-04T14:48:54.579Z,6.92
2023-03-04T14:51:42.504Z,6.97
2023-03-04T14:54:30.199Z,6.72
2023-03-04T14:57:22.038Z,6.90
2023-03-04T15:00:18.212Z,6.89
2023-03-04T15:03:04.377Z,6.78
2023-03-04T15:05:52.788Z,6.65
2023-03-04T15:08:38.991Z,6.71
2023-03-04T15:11:25.561Z,6.68
2023-03-04T15:14:17.845Z,6.57
2023-03-04T15:17:04.272Z,6.60
2023-03-04T15:19:58.436Z,6.36
2023-03-04T15:22:58.485Z,6.13
2023-03-04T15:25:44.394Z,6.18
2023-03-04T15:28:31.476Z,6.15
2023-03-04T15:31:18.123Z,5.89
2023-03-04T15:34:04.351Z,5.90
2023-03-04T15:36:50.687Z,5.74
2023-03-04T15:39:37.930Z,5.79
2023-03-04T15:42:23.990Z,5.76
2023-03-04T15:45:12.513Z,5.70
2023-03-04T15:47:58.523Z,5.55
2023-03-04T15:50:44.938Z,5.50
2023-03-04T15:53:33.197Z,5.42
2023-03-04T15:56:21.371Z,5.39
2023-03-04T15:59:08.002Z,5.37
2023-03-04T16:01:53.874Z,5.37
2023-03-04T16:04:39.693Z,5.31
2023-03-04T16:07:26.304Z,5.25
2023-03-04T16:10:13.897Z,5.28
2023-03-04T16:13:01.053Z,5.19
2023-03-04T16:15:47.128Z,5.16
2023-03-04T16:18:33.030Z,5.14
2023-03-04T16:21:19.214Z,5.13
2023-03-04T16:24:05.327Z,5.02
2023-03-04T16:26:52.696Z,5.06
2023-03-04T16:29:39.747Z,4.96
2023-03-04T16:32:25.859Z,4.92
2023-03-04T16:35:11.664Z,4.92
2023-03-04T16:37:58.473Z,4.90
2023-03-04T16:40:44.371Z,4.83
2023-03-04T16:43:30.191Z,4.77
2023-03-04T16:46:17.105Z,4.75
2023-03-04T16:49:02.805Z,4.71
2023-03-04T16:51:49.479Z,4.67
2023-03-04T16:54:36.084Z,4.58
2023-03-04T16:57:21.850Z,4.57
2023-03-04T17:00:08.809Z,4.55
2023-03-04T17:02:56.933Z,4.49
2023-03-04T17:05:44.202Z,4.45
2023-03-04T17:08:29.917Z,4.41
2023-03-04T17:11:17.031Z,4.36
2023-03-04T17:14:03.335Z,4.32
2023-03-04T17:16:48.985Z,4.30
2023-03-04T17:19:36.152Z,4.22
2023-03-04T17:22:22.582Z,4.14
2023-03-04T17:25:08.798Z,4.14
2023-03-04T17:27:55.223Z,4.08
2023-03-04T17:30:41.028Z,4.09
2023-03-04T17:33:26.845Z,4.01
2023-03-04T17:36:14.593Z,4.02
2023-03-04T17:39:00.771Z,4.00
2023-03-04T17:41:46.875Z,3.96
2023-03-04T17:44:32.737Z,3.94
2023-03-04T17:47:18.418Z,3.87
2023-03-04T17:50:04.266Z,3.83
2023-03-04T17:52:51.435Z,3.79
2023-03-04T17:55:37.180Z,3.73
2023-03-04T17:58:23.378Z,3.77
2023-03-04T18:01:12.501Z,3.73
2023-03-04T18:03:58.328Z,3.70
2023-03-04T18:06:44.320Z,3.63
2023-03-04T18:09:31.533Z,3.65
2023-03-04T18:12:17.269Z,3.63
2023-03-04T18:15:03.188Z,3.60
2023-03-04T18:17:50.128Z,3.51
2023-03-04T18:20:36.000Z,3.50
2023-03-04T18:23:21.879Z,3.45
2023-03-04T18:26:09.014Z,3.44
2023-03-04T18:28:55.222Z,3.45
2023-03-04T18:31:41.529Z,3.39
2023-03-04T18:34:27.522Z,3.40
2023-03-04T18:37:13.251Z,3.38
2023-03-04T18:39:59.253Z,3.33
2023-03-04T18:42:47.810Z,3.38
2023-03-04T18:45:33.648Z,3.35
2023-03-04T18:48:19.858Z,3.28
2023-03-04T18:51:05.784Z,3.32
2023-03-04T18:53:51.523Z,3.26
2023-03-04T18:56:38.521Z,3.26
2023-03-04T18:59:26.307Z,3.25
2023-03-04T19:02:14.346Z,3.25
2023-03-04T19:05:02.793Z,3.24
2023-03-04T19:07:48.818Z,3.23
2023-03-04T19:10:34.928Z,3.21
2023-03-04T19:13:22.602Z,3.20
2023-03-04T19:16:09.937Z,3.18
2023-03-04T19:18:55.843Z,3.20
2023-03-04T19:21:41.853Z,3.21
2023-03-04T19:24:27.887Z,3.17
2023-03-04T19:27:13.612Z,3.19
2023-03-04T19:29:59.614Z,3.16
2023-03-04T19:32:47.395Z,3.14
2023-03-04T19:35:33.391Z,3.13
2023-03-04T19:38:19.207Z,3.13
2023-03-04T19:41:08.792Z,3.12
2023-03-04T19:43:54.674Z,3.13
2023-03-04T19:46:40.854Z,3.13
2023-03-04T19:49:27.883Z,3.11
2023-03-04T19:52:13.728Z,3.10
2023-03-04T19:54:59.535Z,3.06
2023-03-04T19:57:45.225Z,3.06
2023-03-04T20:00:30.984Z,3.07
2023-03-04T20:03:16.897Z,3.05
2023-03-04T20:06:04.633Z,3.03
2023-03-04T20:08:50.510Z,3.06
2023-03-04T20:11:44.287Z,3.02
2023-03-04T20:14:36.726Z,3.00
2023-03-04T20:17:22.547Z,3.02
2023-03-04T20:20:10.565Z,2.99
2023-03-04T20:22:57.679Z,2.98
2023-03-04T20:25:43.985Z,3.00
2023-03-04T20:28:29.813Z,3.00
2023-03-04T20:31:18.515Z,3.01
2023-03-04T20:34:04.648Z,2.99
2023-03-04T20:36:50.300Z,2.99
2023-03-04T20:39:37.474Z,2.97
2023-03-04T20:42:23.398Z,2.93
2023-03-04T20:45:09.671Z,2.89
2023-03-04T20:47:55.714Z,2.92
2023-03-04T20:50:41.845Z,2.92
2023-03-04T20:53:27.586Z,2.87
2023-03-04T20:56:14.751Z,2.90
2023-03-04T20:59:01.391Z,2.90
2023-03-04T21:01:47.812Z,2.89
2023-03-04T21:04:34.392Z,2.86
2023-03-04T21:07:20.425Z,2.88
2023-03-04T21:10:06.722Z,2.88
2023-03-04T21:12:54.111Z,2.87
2023-03-04T21:15:46.792Z,2.87
2023-03-04T21:18:32.758Z,2.87
2023-03-04T21:21:21.921Z,2.88
2023-03-04T21:24:07.973Z,2.89
2023-03-04T21:26:53.763Z,2.86
2023-03-04T21:29:40.813Z,2.88
2023-03-04T21:32:26.996Z,2.85
2023-03-04T21:35:12.903Z,2.84
2023-03-04T21:37:58.630Z,2.83
2023-03-04T21:40:44.400Z,2.84
2023-03-04T21:43:30.089Z,2.82
2023-03-04T21:46:17.396Z,2.81
2023-03-04T21:49:03.527Z,2.82
2023-03-04T21:51:49.453Z,2.80
2023-03-04T21:54:35.284Z,2.80
2023-03-04T21:57:20.976Z,2.80
2023-03-04T22:00:07.461Z,2.81
2023-03-04T22:02:59.100Z,2.76
2023-03-04T22:05:45.401Z,2.75
2023-03-04T22:08:31.522Z,2.73
2023-03-04T22:11:17.386Z,2.74
2023-03-04T22:14:03.560Z,2.71
2023-03-04T22:16:55.581Z,2.72
2023-03-04T22:19:43.466Z,2.70
2023-03-04T22:22:30.189Z,2.72
2023-03-04T22:25:16.054Z,2.70
2023-03-04T22:28:01.827Z,2.69
2023-03-04T22:30:47.622Z,2.71
2023-03-04T22:33:37.082Z,2.69
2023-03-04T22:36:24.132Z,2.68
2023-03-04T22:39:10.350Z,2.67
2023-03-04T22:41:56.381Z,2.66
2023-03-04T22:44:42.264Z,2.70
2023-03-04T22:47:28.227Z,2.70
2023-03-04T22:50:14.154Z,2.64
2023-03-04T22:53:01.203Z,2.65
2023-03-04T22:55:47.033Z,2.61
2023-03-04T22:58:32.847Z,2.58
2023-03-04T23:01:19.000Z,2.60
2023-03-04T23:04:05.155Z,2.53
2023-03-04T23:06:50.970Z,2.53
2023-03-04T23:09:37.974Z,2.55
2023-03-04T23:12:23.888Z,2.53
2023-03-04T23:15:10.221Z,2.53
2023-03-04T23:17:56.052Z,2.54
2023-03-04T23:20:43.263Z,2.49
2023-03-04T23:23:29.389Z,2.46
2023-03-04T23:26:17.614Z,2.48
2023-03-04T23:29:04.983Z,2.48
2023-03-04T23:31:51.222Z,2.47
2023-03-04T23:34:37.495Z,2.42
2023-03-04T23:37:23.573Z,2.43
2023-03-04T23:40:10.681Z,2.38
2023-03-04T23:42:57.972Z,2.36
2023-03-04T23:45:44.745Z,2.35
2023-03-04T23:48:30.969Z,2.35
2023-03-04T23:51:17.357Z,2.36
2023-03-04T23:54:03.569Z,2.34
2023-03-04T23:56:49.549Z,2.32
2023-03-04T23:59:37.098Z,2.35
